ARG1975 SUMU-SAZM
Flight info
| Callsign | ARG1975 |
|---|---|
| Flight time | 0h 40m |
| Altitude | 30000 |
| Route | DARKA UM792 ROPIS |
| Aircraft | B738/M-SDE2E3FGHIRWXY/LB1 |
Departure
| Time | 2026-05-07 02:03 |
|---|---|
| Airport | Carrasco General Cesáreo L. Berisso International Airport (SUMU) |
Arrival
| Time | 2026-05-07 02:44 |
|---|---|
| Airport | Ástor Piazzola International Airport (SAZM) |
| Time | Latitude | Longitude | Altitude | Speed | Heading |
|---|---|---|---|---|---|
| 2026-05-07 01:46 | -34.83547 | -56.01648 | 73 ft | 0 kts | 143° |
| 2026-05-07 01:54 | -34.83534 | -56.01660 | 71 ft | 4 kts | 143° |
| 2026-05-07 01:54 | -34.83512 | -56.01679 | 73 ft | 4 kts | 145° |
| 2026-05-07 01:55 | -34.83490 | -56.01697 | 69 ft | 4 kts | 153° |
| 2026-05-07 01:55 | -34.83466 | -56.01707 | 73 ft | 4 kts | 188° |
| 2026-05-07 01:55 | -34.83454 | -56.01702 | 73 ft | 0 kts | 233° |
| 2026-05-07 01:57 | -34.83454 | -56.01703 | 67 ft | 1 kts | 233° |
| 2026-05-07 01:57 | -34.83480 | -56.01743 | 66 ft | 8 kts | 232° |
| 2026-05-07 01:57 | -34.83515 | -56.01800 | 70 ft | 8 kts | 233° |
| 2026-05-07 01:58 | -34.83549 | -56.01856 | 68 ft | 8 kts | 233° |
| 2026-05-07 01:58 | -34.83581 | -56.01909 | 65 ft | 8 kts | 234° |
| 2026-05-07 01:58 | -34.83626 | -56.01984 | 71 ft | 17 kts | 233° |
| 2026-05-07 01:58 | -34.83707 | -56.02119 | 66 ft | 20 kts | 233° |
| 2026-05-07 01:59 | -34.83803 | -56.02237 | 71 ft | 20 kts | 189° |
| 2026-05-07 01:59 | -34.83943 | -56.02282 | 55 ft | 22 kts | 248° |
| 2026-05-07 01:59 | -34.83947 | -56.02461 | 60 ft | 21 kts | 270° |
| 2026-05-07 01:59 | -34.83952 | -56.02634 | 61 ft | 20 kts | 262° |
| 2026-05-07 02:00 | -34.84005 | -56.02792 | 57 ft | 21 kts | 245° |
| 2026-05-07 02:00 | -34.84010 | -56.02962 | 62 ft | 20 kts | 271° |
| 2026-05-07 02:00 | -34.84039 | -56.03138 | 71 ft | 25 kts | 244° |
| 2026-05-07 02:00 | -34.84122 | -56.03329 | 67 ft | 25 kts | 242° |
| 2026-05-07 02:01 | -34.84161 | -56.03418 | 68 ft | 6 kts | 242° |
| 2026-05-07 02:01 | -34.84182 | -56.03468 | 68 ft | 8 kts | 242° |
| 2026-05-07 02:01 | -34.84211 | -56.03535 | 69 ft | 9 kts | 242° |
| 2026-05-07 02:01 | -34.84239 | -56.03605 | 62 ft | 11 kts | 252° |
| 2026-05-07 02:02 | -34.84201 | -56.03675 | 71 ft | 11 kts | 15° |
| 2026-05-07 02:02 | -34.84161 | -56.03621 | 72 ft | 0 kts | 53° |
| 2026-05-07 02:03 | -34.84046 | -56.03428 | 74 ft | 64 kts | 54° |
| 2026-05-07 02:03 | -34.83647 | -56.02777 | 89 ft | 126 kts | 54° |
| 2026-05-07 02:03 | -34.83028 | -56.01766 | 227 ft | 161 kts | 53° |
| 2026-05-07 02:03 | -34.82481 | -56.00795 | 1340 ft | 123 kts | 57° |
| 2026-05-07 02:04 | -34.82065 | -55.99889 | 1854 ft | 137 kts | 62° |
| 2026-05-07 02:04 | -34.81881 | -55.98600 | 2002 ft | 173 kts | 96° |
| 2026-05-07 02:04 | -34.82530 | -55.97196 | 2200 ft | 213 kts | 135° |
| 2026-05-07 02:04 | -34.83895 | -55.96422 | 2380 ft | 225 kts | 181° |
| 2026-05-07 02:05 | -34.85432 | -55.96842 | 2521 ft | 236 kts | 211° |
| 2026-05-07 02:05 | -34.86960 | -55.97826 | 2700 ft | 262 kts | 214° |
| 2026-05-07 02:05 | -34.88646 | -55.98940 | 2926 ft | 288 kts | 212° |
| 2026-05-07 02:05 | -34.90447 | -56.00118 | 3526 ft | 295 kts | 212° |
| 2026-05-07 02:06 | -34.92260 | -56.01284 | 4303 ft | 297 kts | 212° |
| 2026-05-07 02:06 | -34.94095 | -56.02455 | 5082 ft | 297 kts | 213° |
| 2026-05-07 02:06 | -34.95926 | -56.03619 | 5895 ft | 297 kts | 213° |
| 2026-05-07 02:06 | -34.97756 | -56.04775 | 6733 ft | 296 kts | 214° |
| 2026-05-07 02:07 | -34.99602 | -56.05939 | 7407 ft | 301 kts | 214° |
| 2026-05-07 02:07 | -35.03339 | -56.08363 | 8822 ft | 307 kts | 215° |
| 2026-05-07 02:07 | -35.05242 | -56.09588 | 9505 ft | 311 kts | 214° |
| 2026-05-07 02:08 | -35.07181 | -56.10825 | 10125 ft | 321 kts | 214° |
| 2026-05-07 02:08 | -35.09229 | -56.12133 | 10312 ft | 344 kts | 213° |
| 2026-05-07 02:08 | -35.11406 | -56.13509 | 10672 ft | 358 kts | 213° |
| 2026-05-07 02:08 | -35.13641 | -56.14906 | 11347 ft | 361 kts | 213° |
| 2026-05-07 02:09 | -35.15879 | -56.16302 | 12121 ft | 362 kts | 213° |
| 2026-05-07 02:09 | -35.18121 | -56.17703 | 12896 ft | 363 kts | 212° |
| 2026-05-07 02:09 | -35.20381 | -56.19119 | 13593 ft | 367 kts | 213° |
| 2026-05-07 02:09 | -35.22632 | -56.20532 | 14303 ft | 369 kts | 213° |
| 2026-05-07 02:10 | -35.24923 | -56.21970 | 15065 ft | 372 kts | 213° |
| 2026-05-07 02:10 | -35.27234 | -56.23423 | 15793 ft | 375 kts | 213° |
| 2026-05-07 02:10 | -35.29569 | -56.24890 | 16474 ft | 379 kts | 212° |
| 2026-05-07 02:10 | -35.31981 | -56.26242 | 17162 ft | 384 kts | 208° |
| 2026-05-07 02:11 | -35.34480 | -56.27470 | 17838 ft | 388 kts | 207° |
| 2026-05-07 02:11 | -35.37015 | -56.28658 | 18485 ft | 391 kts | 207° |
| 2026-05-07 02:11 | -35.39575 | -56.29850 | 19054 ft | 396 kts | 207° |
| 2026-05-07 02:11 | -35.42159 | -56.31059 | 19686 ft | 399 kts | 207° |
| 2026-05-07 02:12 | -35.44748 | -56.32280 | 20304 ft | 402 kts | 207° |
| 2026-05-07 02:12 | -35.47367 | -56.33528 | 20910 ft | 405 kts | 208° |
| 2026-05-07 02:12 | -35.49999 | -56.34790 | 21494 ft | 407 kts | 208° |
| 2026-05-07 02:12 | -35.52641 | -56.36061 | 22121 ft | 408 kts | 208° |
| 2026-05-07 02:13 | -35.55280 | -56.37333 | 22830 ft | 406 kts | 208° |
| 2026-05-07 02:13 | -35.57894 | -56.38594 | 23576 ft | 403 kts | 208° |
| 2026-05-07 02:13 | -35.60487 | -56.39847 | 24275 ft | 401 kts | 209° |
| 2026-05-07 02:13 | -35.63085 | -56.41106 | 24597 ft | 401 kts | 209° |
| 2026-05-07 02:14 | -35.65647 | -56.42348 | 24635 ft | 401 kts | 209° |
| 2026-05-07 02:14 | -35.68251 | -56.43614 | 24649 ft | 402 kts | 209° |
| 2026-05-07 02:14 | -35.70852 | -56.44878 | 24646 ft | 402 kts | 209° |
| 2026-05-07 02:14 | -35.73455 | -56.46143 | 24640 ft | 402 kts | 209° |
| 2026-05-07 02:15 | -35.76053 | -56.47406 | 24638 ft | 402 kts | 209° |
| 2026-05-07 02:15 | -35.78649 | -56.48670 | 24642 ft | 401 kts | 209° |
| 2026-05-07 02:15 | -35.81250 | -56.49936 | 24642 ft | 401 kts | 209° |
| 2026-05-07 02:15 | -35.83845 | -56.51201 | 24642 ft | 401 kts | 209° |
| 2026-05-07 02:16 | -35.86440 | -56.52467 | 24639 ft | 401 kts | 209° |
| 2026-05-07 02:16 | -35.89033 | -56.53732 | 24642 ft | 401 kts | 209° |
| 2026-05-07 02:16 | -35.91625 | -56.54997 | 24640 ft | 401 kts | 209° |
| 2026-05-07 02:16 | -35.94222 | -56.56266 | 24640 ft | 401 kts | 209° |
| 2026-05-07 02:17 | -35.96818 | -56.57533 | 24633 ft | 401 kts | 209° |
| 2026-05-07 02:17 | -35.99416 | -56.58804 | 24632 ft | 401 kts | 209° |
| 2026-05-07 02:17 | -36.01978 | -56.60059 | 24627 ft | 402 kts | 209° |
| 2026-05-07 02:17 | -36.04576 | -56.61334 | 24626 ft | 402 kts | 209° |
| 2026-05-07 02:18 | -36.07181 | -56.62613 | 24627 ft | 403 kts | 209° |
| 2026-05-07 02:18 | -36.09794 | -56.63896 | 24632 ft | 403 kts | 209° |
| 2026-05-07 02:18 | -36.12378 | -56.65221 | 24621 ft | 400 kts | 212° |
| 2026-05-07 02:18 | -36.14869 | -56.66743 | 24633 ft | 398 kts | 215° |
| 2026-05-07 02:19 | -36.17305 | -56.68351 | 24630 ft | 397 kts | 216° |
| 2026-05-07 02:19 | -36.19731 | -56.69989 | 24628 ft | 397 kts | 217° |
| 2026-05-07 02:19 | -36.22160 | -56.71630 | 24623 ft | 398 kts | 216° |
| 2026-05-07 02:19 | -36.24595 | -56.73262 | 24630 ft | 398 kts | 216° |
| 2026-05-07 02:20 | -36.27034 | -56.74883 | 24625 ft | 398 kts | 216° |
| 2026-05-07 02:20 | -36.29477 | -56.76498 | 24618 ft | 399 kts | 216° |
| 2026-05-07 02:20 | -36.31930 | -56.78113 | 24617 ft | 399 kts | 216° |
| 2026-05-07 02:20 | -36.34384 | -56.79724 | 24620 ft | 399 kts | 216° |
| 2026-05-07 02:21 | -36.36837 | -56.81334 | 24619 ft | 399 kts | 216° |
| 2026-05-07 02:21 | -36.39288 | -56.82943 | 24619 ft | 399 kts | 216° |
| 2026-05-07 02:21 | -36.41741 | -56.84554 | 24619 ft | 399 kts | 216° |
| 2026-05-07 02:21 | -36.44182 | -56.86156 | 24607 ft | 392 kts | 216° |
| 2026-05-07 02:22 | -36.46577 | -56.87724 | 24354 ft | 386 kts | 216° |
| 2026-05-07 02:22 | -36.48934 | -56.89272 | 24091 ft | 381 kts | 216° |
| 2026-05-07 02:22 | -36.51269 | -56.90810 | 23731 ft | 378 kts | 216° |
| 2026-05-07 02:22 | -36.53546 | -56.92312 | 22986 ft | 374 kts | 216° |
| 2026-05-07 02:23 | -36.55832 | -56.93819 | 22718 ft | 372 kts | 216° |
| 2026-05-07 02:23 | -36.58128 | -56.95341 | 22462 ft | 376 kts | 216° |
| 2026-05-07 02:23 | -36.60421 | -56.96878 | 22171 ft | 372 kts | 217° |
| 2026-05-07 02:23 | -36.62685 | -56.98418 | 21803 ft | 370 kts | 216° |
| 2026-05-07 02:24 | -36.64965 | -56.99893 | 21440 ft | 369 kts | 216° |
| 2026-05-07 02:24 | -36.67232 | -57.01371 | 21066 ft | 366 kts | 216° |
| 2026-05-07 02:24 | -36.69474 | -57.02846 | 20693 ft | 363 kts | 216° |
| 2026-05-07 02:24 | -36.71703 | -57.04321 | 20330 ft | 361 kts | 217° |
| 2026-05-07 02:25 | -36.73915 | -57.05788 | 19974 ft | 359 kts | 217° |
| 2026-05-07 02:25 | -36.76109 | -57.07247 | 19610 ft | 357 kts | 217° |
| 2026-05-07 02:25 | -36.78294 | -57.08699 | 19260 ft | 355 kts | 217° |
| 2026-05-07 02:25 | -36.80476 | -57.10149 | 18893 ft | 355 kts | 217° |
| 2026-05-07 02:26 | -36.82653 | -57.11594 | 18552 ft | 354 kts | 216° |
| 2026-05-07 02:26 | -36.84091 | -57.12552 | 18295 ft | 353 kts | 217° |
| 2026-05-07 02:26 | -36.86258 | -57.13997 | 17929 ft | 352 kts | 217° |
| 2026-05-07 02:26 | -36.89134 | -57.15953 | 17427 ft | 350 kts | 218° |
| 2026-05-07 02:27 | -36.90544 | -57.16915 | 17179 ft | 348 kts | 216° |
| 2026-05-07 02:27 | -36.92695 | -57.18299 | 16796 ft | 347 kts | 216° |
| 2026-05-07 02:27 | -36.94818 | -57.19706 | 16428 ft | 344 kts | 216° |
| 2026-05-07 02:27 | -36.96920 | -57.21107 | 16071 ft | 341 kts | 216° |
| 2026-05-07 02:28 | -36.98996 | -57.22512 | 15710 ft | 337 kts | 216° |
| 2026-05-07 02:28 | -37.01051 | -57.23895 | 15367 ft | 332 kts | 217° |
| 2026-05-07 02:28 | -37.03083 | -57.25267 | 15029 ft | 331 kts | 216° |
| 2026-05-07 02:28 | -37.05108 | -57.26616 | 14694 ft | 329 kts | 216° |
| 2026-05-07 02:29 | -37.07123 | -57.27957 | 14356 ft | 327 kts | 216° |
| 2026-05-07 02:29 | -37.09120 | -57.29288 | 14018 ft | 325 kts | 216° |
| 2026-05-07 02:29 | -37.11110 | -57.30621 | 13677 ft | 323 kts | 216° |
| 2026-05-07 02:29 | -37.13088 | -57.31946 | 13328 ft | 322 kts | 216° |
| 2026-05-07 02:30 | -37.15033 | -57.33250 | 12975 ft | 320 kts | 216° |
| 2026-05-07 02:30 | -37.16986 | -57.34562 | 12616 ft | 318 kts | 216° |
| 2026-05-07 02:30 | -37.18959 | -57.35888 | 12388 ft | 320 kts | 214° |
| 2026-05-07 02:30 | -37.20909 | -57.37203 | 11909 ft | 324 kts | 215° |
| 2026-05-07 02:31 | -37.22895 | -57.38544 | 11512 ft | 324 kts | 215° |
| 2026-05-07 02:31 | -37.24878 | -57.39879 | 11147 ft | 323 kts | 215° |
| 2026-05-07 02:31 | -37.26852 | -57.41209 | 10784 ft | 322 kts | 216° |
| 2026-05-07 02:31 | -37.28822 | -57.42529 | 10428 ft | 320 kts | 216° |
| 2026-05-07 02:32 | -37.30773 | -57.43885 | 10055 ft | 322 kts | 216° |
| 2026-05-07 02:32 | -37.32743 | -57.45167 | 9879 ft | 314 kts | 215° |
| 2026-05-07 02:32 | -37.34650 | -57.46427 | 9736 ft | 305 kts | 216° |
| 2026-05-07 02:32 | -37.36498 | -57.47678 | 9590 ft | 298 kts | 216° |
| 2026-05-07 02:33 | -37.38315 | -57.48915 | 9294 ft | 296 kts | 216° |
| 2026-05-07 02:33 | -37.40124 | -57.50151 | 9011 ft | 295 kts | 216° |
| 2026-05-07 02:33 | -37.41921 | -57.51377 | 8709 ft | 293 kts | 216° |
| 2026-05-07 02:33 | -37.43692 | -57.52604 | 8409 ft | 293 kts | 217° |
| 2026-05-07 02:34 | -37.45476 | -57.53844 | 8105 ft | 293 kts | 215° |
| 2026-05-07 02:34 | -37.47275 | -57.55055 | 7798 ft | 293 kts | 215° |
| 2026-05-07 02:34 | -37.49068 | -57.56259 | 7490 ft | 291 kts | 215° |
| 2026-05-07 02:34 | -37.50858 | -57.57463 | 7192 ft | 291 kts | 215° |
| 2026-05-07 02:35 | -37.52637 | -57.58663 | 6888 ft | 290 kts | 215° |
| 2026-05-07 02:35 | -37.54414 | -57.59868 | 6576 ft | 290 kts | 215° |
| 2026-05-07 02:35 | -37.56188 | -57.61075 | 6248 ft | 290 kts | 214° |
| 2026-05-07 02:35 | -37.57961 | -57.62287 | 5951 ft | 288 kts | 215° |
| 2026-05-07 02:36 | -37.59722 | -57.63495 | 5615 ft | 287 kts | 213° |
| 2026-05-07 02:36 | -37.61470 | -57.64724 | 5317 ft | 289 kts | 213° |
| 2026-05-07 02:36 | -37.63242 | -57.65913 | 4998 ft | 289 kts | 211° |
| 2026-05-07 02:36 | -37.65014 | -57.67101 | 4705 ft | 288 kts | 211° |
| 2026-05-07 02:37 | -37.66780 | -57.68295 | 4493 ft | 285 kts | 208° |
| 2026-05-07 02:37 | -37.68508 | -57.69460 | 4357 ft | 280 kts | 209° |
| 2026-05-07 02:37 | -37.70199 | -57.70620 | 4235 ft | 272 kts | 209° |
| 2026-05-07 02:37 | -37.71841 | -57.71746 | 4113 ft | 265 kts | 208° |
| 2026-05-07 02:38 | -37.73437 | -57.72839 | 4007 ft | 257 kts | 208° |
| 2026-05-07 02:38 | -37.75064 | -57.73697 | 3816 ft | 251 kts | 190° |
| 2026-05-07 02:38 | -37.76741 | -57.74111 | 3630 ft | 248 kts | 187° |
| 2026-05-07 02:38 | -37.78427 | -57.74554 | 3415 ft | 247 kts | 188° |
| 2026-05-07 02:39 | -37.80106 | -57.75021 | 3179 ft | 246 kts | 187° |
| 2026-05-07 02:39 | -37.81759 | -57.75492 | 3034 ft | 240 kts | 187° |
| 2026-05-07 02:39 | -37.83375 | -57.75899 | 2994 ft | 231 kts | 174° |
| 2026-05-07 02:39 | -37.84760 | -57.75417 | 2996 ft | 191 kts | 130° |
| 2026-05-07 02:40 | -37.85375 | -57.74123 | 2867 ft | 166 kts | 99° |
| 2026-05-07 02:40 | -37.85797 | -57.72738 | 2650 ft | 172 kts | 113° |
| 2026-05-07 02:40 | -37.86366 | -57.71426 | 2426 ft | 166 kts | 113° |
| 2026-05-07 02:40 | -37.86923 | -57.70208 | 2220 ft | 153 kts | 116° |
| 2026-05-07 02:41 | -37.87462 | -57.69114 | 2045 ft | 139 kts | 117° |
| 2026-05-07 02:41 | -37.87964 | -57.68116 | 1841 ft | 130 kts | 118° |
| 2026-05-07 02:41 | -37.88442 | -57.67168 | 1675 ft | 127 kts | 118° |
| 2026-05-07 02:41 | -37.88916 | -57.66226 | 1503 ft | 127 kts | 119° |
| 2026-05-07 02:42 | -37.89389 | -57.65290 | 1337 ft | 126 kts | 121° |
| 2026-05-07 02:42 | -37.89882 | -57.64315 | 1185 ft | 137 kts | 121° |
| 2026-05-07 02:42 | -37.90391 | -57.63309 | 991 ft | 134 kts | 121° |
| 2026-05-07 02:42 | -37.90895 | -57.62309 | 823 ft | 134 kts | 122° |
| 2026-05-07 02:43 | -37.91404 | -57.61305 | 631 ft | 136 kts | 121° |
| 2026-05-07 02:43 | -37.91926 | -57.60297 | 420 ft | 139 kts | 122° |
| 2026-05-07 02:43 | -37.92440 | -57.59268 | 261 ft | 138 kts | 120° |
| 2026-05-07 02:43 | -37.92949 | -57.58243 | 64 ft | 136 kts | 122° |
| 2026-05-07 02:44 | -37.93408 | -57.57343 | 50 ft | 98 kts | 123° |
| 2026-05-07 02:44 | -37.93691 | -57.56788 | 54 ft | 60 kts | 123° |
| 2026-05-07 02:44 | -37.93872 | -57.56434 | 51 ft | 37 kts | 123° |
| 2026-05-07 02:44 | -37.93975 | -57.56340 | 49 ft | 12 kts | 216° |
| 2026-05-07 02:45 | -37.94021 | -57.56422 | 52 ft | 11 kts | 243° |
| 2026-05-07 02:45 | -37.94025 | -57.56516 | 52 ft | 11 kts | 287° |
| 2026-05-07 02:45 | -37.93990 | -57.56601 | 52 ft | 11 kts | 300° |
| 2026-05-07 02:45 | -37.93954 | -57.56681 | 53 ft | 10 kts | 300° |
| 2026-05-07 02:46 | -37.93919 | -57.56760 | 53 ft | 10 kts | 300° |
| 2026-05-07 02:46 | -37.93884 | -57.56836 | 50 ft | 10 kts | 299° |
| 2026-05-07 02:46 | -37.93851 | -57.56911 | 52 ft | 10 kts | 299° |
| 2026-05-07 02:46 | -37.93814 | -57.56995 | 49 ft | 13 kts | 300° |
| 2026-05-07 02:47 | -37.93764 | -57.57108 | 53 ft | 16 kts | 300° |
| 2026-05-07 02:47 | -37.93710 | -57.57232 | 50 ft | 16 kts | 298° |
| 2026-05-07 02:47 | -37.93657 | -57.57351 | 53 ft | 15 kts | 300° |
| 2026-05-07 02:47 | -37.93606 | -57.57465 | 51 ft | 15 kts | 298° |
| 2026-05-07 02:48 | -37.93558 | -57.57575 | 52 ft | 14 kts | 299° |
| 2026-05-07 02:48 | -37.93512 | -57.57679 | 50 ft | 13 kts | 299° |
| 2026-05-07 02:48 | -37.93468 | -57.57780 | 49 ft | 13 kts | 300° |
| 2026-05-07 02:48 | -37.93424 | -57.57876 | 49 ft | 13 kts | 299° |
| 2026-05-07 02:49 | -37.93383 | -57.57972 | 49 ft | 12 kts | 298° |
| 2026-05-07 02:49 | -37.93357 | -57.58050 | 53 ft | 7 kts | 298° |
| 2026-05-07 02:49 | -37.93334 | -57.58070 | 51 ft | 0 kts | 336° |